createdAt,value
2017-11-29T00:01:55.817Z,5.82
2017-11-29T00:04:23.737Z,5.76
2017-11-29T00:06:52.121Z,5.86
2017-11-29T00:09:20.039Z,5.79
2017-11-29T00:11:47.969Z,5.77
2017-11-29T00:14:15.890Z,5.79
2017-11-29T00:16:43.786Z,5.77
2017-11-29T00:19:12.104Z,5.73
2017-11-29T00:21:40.017Z,5.72
2017-11-29T00:24:08.325Z,5.74
2017-11-29T00:26:36.278Z,5.79
2017-11-29T00:29:04.194Z,5.89
2017-11-29T00:31:32.087Z,5.87
2017-11-29T00:34:00.057Z,5.76
2017-11-29T00:36:27.976Z,5.76
2017-11-29T00:38:55.905Z,5.79
2017-11-29T00:41:24.221Z,5.78
2017-11-29T00:43:52.118Z,5.77
2017-11-29T00:46:20.042Z,5.73
2017-11-29T00:48:47.954Z,5.80
2017-11-29T00:51:15.943Z,5.61
2017-11-29T00:53:43.839Z,5.52
2017-11-29T00:56:11.774Z,5.57
2017-11-29T00:58:39.691Z,5.57
2017-11-29T01:01:07.597Z,5.48
2017-11-29T01:03:35.523Z,5.47
2017-11-29T01:06:03.498Z,5.54
2017-11-29T01:08:31.404Z,5.57
2017-11-29T01:10:59.366Z,5.46
2017-11-29T01:13:27.268Z,5.55
2017-11-29T01:15:55.681Z,5.42
2017-11-29T01:18:23.613Z,5.32
2017-11-29T01:20:51.926Z,5.16
2017-11-29T01:23:19.845Z,5.19
2017-11-29T01:25:47.786Z,5.11
2017-11-29T01:28:15.703Z,4.94
2017-11-29T01:30:43.600Z,4.90
2017-11-29T01:33:11.607Z,4.96
2017-11-29T01:35:39.530Z,4.83
2017-11-29T01:38:07.441Z,4.82
2017-11-29T01:40:35.404Z,4.68
2017-11-29T01:43:03.317Z,4.71
2017-11-29T01:45:31.621Z,4.64
2017-11-29T01:47:59.533Z,4.64
2017-11-29T01:50:27.434Z,4.66
2017-11-29T01:52:55.738Z,4.61
2017-11-29T01:55:23.741Z,4.62
2017-11-29T01:57:51.710Z,4.60
2017-11-29T02:00:19.618Z,4.60
2017-11-29T02:02:47.548Z,4.50
2017-11-29T02:05:15.458Z,4.57
2017-11-29T02:07:43.399Z,4.59
2017-11-29T02:10:11.321Z,4.49
2017-11-29T02:12:39.339Z,4.44
2017-11-29T02:15:07.283Z,4.40
2017-11-29T02:17:35.215Z,4.46
2017-11-29T02:20:03.127Z,4.42
2017-11-29T02:22:31.030Z,4.41
2017-11-29T02:24:59.345Z,4.41
2017-11-29T02:27:27.318Z,4.50
2017-11-29T02:29:55.209Z,4.53
2017-11-29T02:32:23.134Z,4.59
2017-11-29T02:34:51.048Z,4.64
2017-11-29T02:37:18.953Z,4.62
2017-11-29T02:39:58.757Z,4.60
2017-11-29T02:42:37.525Z,4.66
2017-11-29T02:45:05.460Z,4.54
2017-11-29T02:47:33.392Z,4.54
2017-11-29T02:50:01.416Z,4.37
2017-11-29T02:52:29.734Z,4.30
2017-11-29T02:54:57.636Z,4.25
2017-11-29T02:57:25.660Z,4.23
2017-11-29T02:59:53.581Z,4.11
2017-11-29T03:02:21.889Z,4.01
2017-11-29T03:04:49.807Z,3.91
2017-11-29T03:07:17.737Z,3.86
2017-11-29T03:09:45.667Z,3.69
2017-11-29T03:12:13.597Z,3.66
2017-11-29T03:14:41.588Z,3.61
2017-11-29T03:17:09.489Z,3.51
2017-11-29T03:19:37.791Z,3.38
2017-11-29T03:22:05.728Z,3.40
2017-11-29T03:24:34.038Z,3.39
2017-11-29T03:27:01.976Z,3.30
2017-11-29T03:29:30.322Z,3.36
2017-11-29T03:31:58.222Z,3.28
2017-11-29T03:34:26.515Z,3.37
2017-11-29T03:36:54.447Z,3.36
2017-11-29T03:39:22.357Z,3.32
2017-11-29T03:41:50.271Z,3.29
2017-11-29T03:44:18.198Z,3.33
2017-11-29T03:46:46.134Z,3.31
2017-11-29T03:49:14.440Z,3.19
2017-11-29T03:51:42.354Z,3.26
2017-11-29T03:54:10.354Z,3.33
2017-11-29T03:56:38.656Z,3.38
2017-11-29T03:59:06.594Z,3.29
2017-11-29T04:01:34.892Z,3.34
2017-11-29T04:04:02.793Z,3.37
2017-11-29T04:06:30.741Z,3.44
2017-11-29T04:08:58.646Z,3.39
2017-11-29T04:11:26.670Z,3.37
2017-11-29T04:13:54.612Z,3.35
2017-11-29T04:16:22.577Z,3.40
2017-11-29T04:18:50.952Z,3.41
2017-11-29T04:21:18.882Z,3.49
2017-11-29T04:23:46.789Z,3.47
2017-11-29T04:26:14.710Z,3.53
2017-11-29T04:28:42.649Z,3.48
2017-11-29T04:31:10.561Z,3.57
2017-11-29T04:33:38.476Z,3.56
2017-11-29T04:36:06.803Z,3.60
2017-11-29T04:38:34.752Z,3.47
2017-11-29T04:41:02.652Z,3.56
2017-11-29T04:43:30.614Z,3.61
2017-11-29T04:45:58.531Z,3.47
2017-11-29T04:48:26.849Z,3.43
2017-11-29T04:50:54.772Z,3.53
2017-11-29T04:53:23.076Z,3.35
2017-11-29T04:55:51.162Z,3.23
2017-11-29T04:58:19.170Z,3.21
2017-11-29T05:00:47.073Z,3.08
2017-11-29T05:03:14.969Z,3.04
2017-11-29T05:05:42.886Z,2.88
2017-11-29T05:08:11.182Z,2.80
2017-11-29T05:10:39.115Z,2.63
2017-11-29T05:13:07.059Z,2.62
2017-11-29T05:15:34.970Z,2.61
2017-11-29T05:18:03.271Z,2.53
2017-11-29T05:20:31.204Z,2.59
2017-11-29T05:22:59.145Z,2.43
2017-11-29T05:25:27.060Z,2.42
2017-11-29T05:27:55.387Z,2.42
2017-11-29T05:30:23.296Z,2.40
2017-11-29T05:32:51.588Z,2.36
2017-11-29T05:35:19.515Z,2.42
2017-11-29T05:37:47.452Z,2.44
2017-11-29T05:40:15.474Z,2.48
2017-11-29T05:42:43.855Z,2.46
2017-11-29T05:45:12.149Z,2.48
2017-11-29T05:47:40.075Z,2.52
2017-11-29T05:50:08.055Z,2.54
2017-11-29T05:52:35.964Z,2.44
2017-11-29T05:55:03.920Z,2.49
2017-11-29T05:57:32.242Z,2.43
2017-11-29T06:00:00.184Z,2.47
2017-11-29T06:02:28.094Z,2.50
2017-11-29T06:04:56.019Z,2.44
2017-11-29T06:07:23.909Z,2.40
2017-11-29T06:09:51.916Z,2.33
2017-11-29T06:12:19.847Z,2.31
2017-11-29T06:14:47.787Z,2.37
2017-11-29T06:17:15.703Z,2.33
2017-11-29T06:19:43.754Z,2.33
2017-11-29T06:22:11.667Z,2.41
2017-11-29T06:24:39.969Z,2.35
2017-11-29T06:27:07.947Z,2.38
2017-11-29T06:29:35.893Z,2.43
2017-11-29T06:32:04.213Z,2.44
2017-11-29T06:34:32.151Z,2.46
2017-11-29T06:37:00.069Z,2.58
2017-11-29T06:39:27.986Z,2.55
2017-11-29T06:41:55.936Z,2.49
2017-11-29T06:44:24.265Z,2.51
2017-11-29T06:46:52.305Z,2.49
2017-11-29T06:49:20.237Z,2.52
2017-11-29T06:51:48.232Z,2.69
2017-11-29T06:54:16.533Z,2.64
2017-11-29T06:56:44.455Z,2.76
2017-11-29T06:59:12.563Z,2.69
2017-11-29T07:01:40.533Z,2.73
2017-11-29T07:04:08.557Z,2.75
2017-11-29T07:06:36.547Z,2.93
2017-11-29T07:09:04.855Z,2.90
2017-11-29T07:11:32.877Z,3.02
2017-11-29T07:14:00.788Z,3.03
2017-11-29T07:16:28.698Z,3.17
2017-11-29T07:18:56.624Z,3.22
2017-11-29T07:21:24.599Z,3.22
2017-11-29T07:23:52.491Z,3.34
2017-11-29T07:26:20.429Z,3.38
2017-11-29T07:28:48.359Z,3.55
2017-11-29T07:31:16.371Z,3.51
2017-11-29T07:33:44.341Z,3.50
2017-11-29T07:36:12.245Z,3.52
2017-11-29T07:38:40.164Z,3.70
2017-11-29T07:41:08.146Z,4.28
2017-11-29T07:43:36.074Z,5.41
2017-11-29T07:46:04.047Z,6.45
2017-11-29T07:48:32.414Z,7.05
2017-11-29T07:51:00.327Z,7.87
2017-11-29T07:53:28.287Z,8.20
2017-11-29T07:55:56.227Z,7.87
2017-11-29T07:58:24.152Z,7.61
2017-11-29T08:00:52.062Z,6.96
2017-11-29T08:03:19.983Z,6.52
2017-11-29T08:05:47.899Z,6.31
2017-11-29T08:08:15.797Z,5.77
2017-11-29T08:10:43.831Z,5.39
2017-11-29T08:13:11.732Z,5.52
2017-11-29T08:15:39.663Z,5.35
2017-11-29T08:18:07.593Z,5.26
2017-11-29T08:20:36.503Z,5.29
2017-11-29T08:23:04.439Z,5.40
2017-11-29T08:25:32.362Z,5.30
2017-11-29T08:28:00.282Z,5.33
2017-11-29T08:30:28.189Z,5.22
2017-11-29T08:32:57.018Z,5.05
2017-11-29T08:35:24.937Z,5.88
2017-11-29T08:37:52.872Z,7.07
2017-11-29T08:40:20.807Z,8.08
2017-11-29T08:42:49.627Z,8.89
2017-11-29T08:45:17.541Z,9.41
2017-11-29T08:47:45.460Z,9.37
2017-11-29T08:50:13.369Z,10.47
2017-11-29T08:52:41.301Z,10.62
2017-11-29T08:55:09.318Z,10.63
2017-11-29T08:57:37.284Z,11.81
2017-11-29T09:00:05.195Z,11.89
2017-11-29T09:02:33.133Z,12.05
2017-11-29T09:05:01.453Z,12.74
2017-11-29T09:07:29.373Z,12.55
2017-11-29T09:09:57.300Z,12.91
2017-11-29T09:12:25.237Z,13.38
2017-11-29T09:14:53.555Z,13.53
2017-11-29T09:17:21.583Z,14.43
2017-11-29T09:19:49.893Z,14.76
2017-11-29T09:22:17.800Z,14.95
2017-11-29T09:24:45.805Z,15.14
2017-11-29T09:27:13.722Z,15.49
2017-11-29T09:29:41.640Z,15.58
2017-11-29T09:32:09.634Z,15.22
2017-11-29T09:34:37.649Z,15.80
2017-11-29T09:37:05.605Z,15.75
2017-11-29T09:39:33.545Z,15.65
2017-11-29T09:42:01.475Z,15.63
2017-11-29T09:44:29.781Z,15.89
2017-11-29T09:46:57.717Z,16.09
2017-11-29T09:49:25.662Z,15.46
2017-11-29T09:51:53.587Z,15.88
2017-11-29T09:54:21.621Z,14.75
2017-11-29T09:56:49.921Z,15.47
2017-11-29T09:59:18.362Z,15.37
2017-11-29T10:01:46.322Z,14.50
2017-11-29T10:04:14.245Z,15.02
2017-11-29T10:06:42.156Z,14.58
2017-11-29T10:09:10.096Z,14.26
2017-11-29T10:11:38.093Z,14.72
2017-11-29T10:14:06.005Z,14.01
2017-11-29T10:16:34.062Z,14.46
2017-11-29T10:19:02.369Z,14.14
2017-11-29T10:21:30.404Z,14.50
2017-11-29T10:23:58.725Z,14.34
2017-11-29T10:26:26.645Z,13.37
2017-11-29T10:28:54.956Z,13.28
2017-11-29T10:31:22.986Z,13.36
2017-11-29T10:33:51.313Z,13.30
2017-11-29T10:36:19.238Z,12.79
2017-11-29T10:38:47.176Z,11.53
2017-11-29T10:41:15.116Z,12.02
2017-11-29T10:43:43.032Z,11.78
2017-11-29T10:48:45.237Z,10.77
2017-11-29T10:51:13.299Z,10.15
2017-11-29T10:53:41.664Z,9.73
2017-11-29T10:56:09.644Z,9.71
2017-11-29T10:58:37.596Z,9.93
2017-11-29T11:01:05.619Z,10.22
2017-11-29T11:03:33.553Z,10.67
2017-11-29T11:06:01.477Z,10.69
2017-11-29T11:08:29.480Z,10.15
2017-11-29T11:10:57.385Z,9.75
2017-11-29T11:13:25.311Z,9.54
2017-11-29T11:15:53.217Z,9.23
2017-11-29T11:18:21.131Z,9.02
2017-11-29T11:20:49.064Z,8.77
2017-11-29T11:23:16.970Z,8.43
2017-11-29T11:25:44.877Z,8.22
2017-11-29T11:28:12.786Z,8.05
2017-11-29T11:30:40.684Z,7.94
2017-11-29T11:33:08.589Z,7.73
2017-11-29T11:35:36.898Z,7.67
2017-11-29T11:38:04.793Z,7.56
2017-11-29T11:40:32.692Z,7.57
2017-11-29T11:43:01.016Z,7.26
2017-11-29T11:45:28.917Z,7.05
2017-11-29T11:47:56.813Z,6.99
2017-11-29T11:50:25.125Z,7.08
2017-11-29T11:52:53.037Z,7.19
2017-11-29T11:55:20.948Z,7.17
2017-11-29T11:57:48.881Z,7.19
2017-11-29T12:00:17.190Z,7.13
2017-11-29T12:02:45.111Z,7.24
2017-11-29T12:05:13.025Z,7.28
2017-11-29T12:07:40.921Z,7.31
2017-11-29T12:10:08.829Z,7.01
2017-11-29T12:12:37.134Z,6.64
2017-11-29T12:15:05.032Z,6.65
2017-11-29T12:17:32.926Z,6.68
2017-11-29T12:20:00.866Z,6.52
2017-11-29T12:22:28.782Z,6.48
2017-11-29T12:24:57.086Z,6.68
2017-11-29T12:27:25.011Z,6.82
2017-11-29T12:29:52.909Z,6.83
2017-11-29T12:32:20.855Z,6.88
2017-11-29T12:34:49.163Z,6.96
2017-11-29T12:37:17.057Z,6.82
2017-11-29T12:39:44.964Z,6.63
2017-11-29T12:42:12.889Z,6.59
2017-11-29T12:44:40.785Z,6.64
2017-11-29T12:47:08.691Z,6.60
2017-11-29T12:49:48.538Z,6.47
2017-11-29T12:52:16.430Z,6.39
2017-11-29T12:54:44.323Z,6.35
2017-11-29T12:57:12.250Z,6.44
2017-11-29T12:59:40.159Z,6.54
2017-11-29T13:02:08.126Z,6.75
2017-11-29T13:04:36.048Z,6.42
2017-11-29T13:07:03.940Z,6.60
2017-11-29T13:09:31.841Z,6.59
2017-11-29T13:11:59.768Z,6.61
2017-11-29T13:14:27.674Z,6.55
2017-11-29T13:16:55.601Z,6.70
2017-11-29T13:19:23.516Z,6.67
2017-11-29T13:21:51.416Z,6.56
2017-11-29T13:24:19.313Z,6.41
2017-11-29T13:26:47.222Z,6.45
2017-11-29T13:29:15.133Z,6.49
2017-11-29T13:31:43.032Z,6.26
2017-11-29T13:34:11.324Z,6.10
2017-11-29T13:36:39.223Z,6.09
2017-11-29T13:39:07.568Z,5.99
2017-11-29T13:41:35.879Z,5.91
2017-11-29T13:44:04.200Z,5.86
2017-11-29T13:46:32.098Z,5.78
2017-11-29T13:49:00.017Z,5.82
2017-11-29T13:51:27.939Z,5.75
2017-11-29T13:53:55.854Z,5.76
2017-11-29T13:56:23.796Z,5.60
2017-11-29T13:58:52.096Z,5.66
2017-11-29T14:01:19.989Z,5.61
2017-11-29T14:03:47.909Z,5.45
2017-11-29T14:06:16.215Z,5.41
2017-11-29T14:08:44.165Z,5.49
2017-11-29T14:11:12.088Z,5.39
2017-11-29T14:13:39.991Z,5.28
2017-11-29T14:16:08.303Z,5.30
2017-11-29T14:18:36.245Z,5.31
2017-11-29T14:21:04.144Z,5.30
2017-11-29T14:23:32.120Z,5.27
2017-11-29T14:26:00.089Z,5.21
2017-11-29T14:28:27.985Z,5.06
2017-11-29T14:30:56.306Z,5.01
2017-11-29T14:33:24.247Z,4.89
2017-11-29T14:35:52.565Z,4.95
2017-11-29T14:38:20.474Z,4.87
2017-11-29T14:40:48.428Z,4.93
2017-11-29T14:43:16.332Z,4.96
2017-11-29T14:45:44.656Z,4.92
2017-11-29T14:48:12.584Z,4.83
2017-11-29T14:50:41.013Z,4.78
2017-11-29T14:53:08.905Z,4.78
2017-11-29T14:55:36.853Z,4.69
2017-11-29T14:58:04.780Z,4.75
2017-11-29T15:00:32.702Z,4.71
2017-11-29T15:03:00.633Z,4.66
2017-11-29T15:05:28.537Z,4.61
2017-11-29T15:07:56.446Z,4.49
2017-11-29T15:10:24.368Z,4.38
2017-11-29T15:12:52.295Z,4.45
2017-11-29T15:15:20.372Z,4.50
2017-11-29T15:17:48.441Z,4.51
2017-11-29T15:20:17.214Z,4.46
2017-11-29T15:22:45.126Z,4.34
2017-11-29T15:25:13.079Z,4.37
2017-11-29T15:27:41.012Z,4.25
2017-11-29T15:30:09.344Z,4.24
2017-11-29T15:32:37.271Z,4.22
2017-11-29T15:35:05.174Z,4.16
2017-11-29T15:37:33.082Z,4.15
2017-11-29T15:40:01.398Z,4.19
2017-11-29T15:42:29.296Z,4.16
2017-11-29T15:44:57.189Z,4.13
2017-11-29T15:47:25.501Z,4.17
2017-11-29T15:49:53.399Z,4.20
2017-11-29T15:52:21.319Z,4.01
2017-11-29T15:54:49.634Z,4.03
2017-11-29T15:57:17.532Z,4.03
2017-11-29T15:59:45.441Z,4.05
2017-11-29T16:02:13.359Z,4.00
2017-11-29T16:04:41.286Z,3.98
2017-11-29T16:07:09.241Z,4.00
2017-11-29T16:09:37.160Z,3.98
2017-11-29T16:12:05.057Z,3.98
2017-11-29T16:14:33.344Z,4.00
2017-11-29T16:17:01.652Z,4.02
2017-11-29T16:19:29.729Z,3.93
2017-11-29T16:21:57.636Z,3.99
2017-11-29T16:24:25.652Z,4.01
2017-11-29T16:26:53.817Z,4.06
2017-11-29T16:29:21.706Z,4.00
2017-11-29T16:31:49.664Z,3.91
2017-11-29T16:34:17.564Z,3.98
2017-11-29T16:36:45.473Z,3.93
2017-11-29T16:39:13.793Z,3.89
2017-11-29T16:41:41.693Z,3.84
2017-11-29T16:44:09.593Z,3.85
2017-11-29T16:46:37.533Z,3.80
2017-11-29T16:49:05.436Z,3.80
2017-11-29T16:51:33.361Z,3.78
2017-11-29T16:54:01.267Z,3.87
2017-11-29T16:56:29.175Z,3.94
2017-11-29T16:58:57.082Z,3.94
2017-11-29T17:01:25.405Z,3.95
2017-11-29T17:03:53.308Z,3.97
2017-11-29T17:06:21.221Z,4.04
2017-11-29T17:08:49.135Z,4.03
2017-11-29T17:11:17.039Z,3.96
2017-11-29T17:13:45.341Z,4.08
2017-11-29T17:16:13.263Z,4.02
2017-11-29T17:18:41.169Z,4.10
2017-11-29T17:21:09.077Z,4.17
2017-11-29T17:23:37.058Z,4.06
2017-11-29T17:26:05.030Z,4.10
2017-11-29T17:28:32.934Z,4.13
2017-11-29T17:31:01.253Z,4.12
2017-11-29T17:33:29.198Z,4.22
2017-11-29T17:35:57.138Z,4.12
2017-11-29T17:38:25.448Z,4.01
2017-11-29T17:40:53.355Z,4.06
2017-11-29T17:43:21.325Z,3.97
2017-11-29T17:45:49.254Z,3.91
2017-11-29T17:48:17.144Z,3.95
2017-11-29T17:50:45.058Z,3.99
2017-11-29T17:53:13.368Z,3.99
2017-11-29T17:55:41.276Z,3.90
2017-11-29T17:58:09.180Z,3.96
2017-11-29T18:00:37.106Z,3.89
2017-11-29T18:03:04.999Z,3.82
2017-11-29T18:05:33.352Z,3.97
2017-11-29T18:08:01.270Z,3.89
2017-11-29T18:10:29.164Z,3.86
2017-11-29T18:12:57.070Z,3.82
2017-11-29T18:15:24.990Z,3.92
2017-11-29T18:17:52.919Z,3.94
2017-11-29T18:20:21.242Z,3.79
2017-11-29T18:22:49.160Z,3.80
2017-11-29T18:25:17.065Z,3.65
2017-11-29T18:27:44.963Z,3.72
2017-11-29T18:30:12.912Z,3.53
2017-11-29T18:32:40.833Z,3.71
2017-11-29T18:35:09.211Z,3.75
2017-11-29T18:37:37.624Z,3.73
2017-11-29T18:40:05.536Z,3.71
2017-11-29T18:42:33.438Z,3.70
2017-11-29T18:45:01.747Z,3.71
2017-11-29T18:47:29.665Z,3.82
2017-11-29T18:49:57.968Z,3.63
2017-11-29T18:52:25.878Z,3.67
2017-11-29T18:54:53.829Z,3.69
2017-11-29T18:57:21.803Z,3.65
2017-11-29T18:59:49.721Z,3.66
2017-11-29T19:02:18.025Z,3.63
2017-11-29T19:04:45.928Z,3.60
2017-11-29T19:07:13.864Z,3.51
2017-11-29T19:09:41.766Z,3.50
2017-11-29T19:12:09.671Z,3.46
2017-11-29T19:14:37.600Z,3.42
2017-11-29T19:17:05.504Z,3.34
2017-11-29T19:19:33.805Z,3.35
2017-11-29T19:22:02.198Z,3.28
2017-11-29T19:24:30.173Z,3.21
2017-11-29T19:26:58.090Z,3.18
2017-11-29T19:29:26.024Z,3.26
2017-11-29T19:31:53.928Z,3.29
2017-11-29T19:34:21.832Z,3.33
2017-11-29T19:36:49.793Z,3.34
2017-11-29T19:39:17.709Z,3.38
2017-11-29T19:41:45.616Z,3.37
2017-11-29T19:44:13.534Z,3.32
2017-11-29T19:46:41.431Z,3.25
2017-11-29T19:49:09.334Z,3.29
2017-11-29T19:51:37.256Z,3.24
2017-11-29T19:54:05.169Z,3.27
2017-11-29T19:56:33.079Z,3.20
2017-11-29T19:59:01.049Z,3.23
2017-11-29T20:01:28.976Z,3.03
2017-11-29T20:03:57.049Z,3.18
2017-11-29T20:06:24.969Z,3.23
2017-11-29T20:08:52.879Z,3.23
2017-11-29T20:11:20.801Z,3.19
2017-11-29T20:13:48.715Z,3.19
2017-11-29T20:16:16.626Z,3.25
2017-11-29T20:18:44.533Z,3.35
2017-11-29T20:21:12.855Z,3.24
2017-11-29T20:23:40.753Z,3.32
2017-11-29T20:26:08.660Z,3.33
2017-11-29T20:28:36.583Z,3.34
2017-11-29T20:31:04.499Z,3.35
2017-11-29T20:33:32.405Z,3.28
2017-11-29T20:36:00.342Z,3.31
2017-11-29T20:38:28.232Z,3.36
2017-11-29T20:40:56.135Z,3.41
2017-11-29T20:43:24.111Z,3.37
2017-11-29T20:45:52.737Z,3.36
2017-11-29T20:48:20.672Z,3.34
2017-11-29T20:50:49.080Z,3.42
2017-11-29T20:53:17.029Z,3.40
2017-11-29T20:55:45.346Z,3.53
2017-11-29T20:58:13.288Z,3.51
2017-11-29T21:00:41.189Z,3.46
2017-11-29T21:03:09.339Z,3.48
2017-11-29T21:05:37.297Z,3.43
2017-11-29T21:08:05.200Z,3.51
2017-11-29T21:10:33.106Z,3.45
2017-11-29T21:13:01.430Z,3.48
2017-11-29T21:15:29.329Z,3.48
2017-11-29T21:17:57.237Z,3.47
2017-11-29T21:20:25.165Z,3.40
2017-11-29T21:22:53.071Z,3.38
2017-11-29T21:25:21.022Z,3.37
2017-11-29T21:27:49.349Z,3.34
2017-11-29T21:30:17.254Z,3.28
2017-11-29T21:32:45.202Z,3.40
2017-11-29T21:35:13.161Z,3.33
2017-11-29T21:37:41.057Z,3.32
2017-11-29T21:40:08.958Z,3.43
2017-11-29T21:42:36.915Z,3.43
2017-11-29T21:45:05.226Z,3.42
2017-11-29T21:47:33.145Z,3.48
2017-11-29T21:50:01.093Z,3.41
2017-11-29T21:52:28.997Z,3.33
2017-11-29T21:54:56.907Z,3.48
2017-11-29T21:57:24.835Z,3.34
2017-11-29T21:59:52.742Z,3.41
2017-11-29T22:02:20.644Z,3.21
2017-11-29T22:04:48.573Z,3.27
2017-11-29T22:07:16.474Z,3.39
2017-11-29T22:09:44.388Z,3.29
2017-11-29T22:12:12.688Z,3.37
2017-11-29T22:14:40.613Z,3.47
2017-11-29T22:17:08.907Z,3.38
2017-11-29T22:19:36.841Z,3.35
2017-11-29T22:22:04.730Z,3.48
2017-11-29T22:24:33.047Z,3.45
2017-11-29T22:27:00.974Z,3.35
2017-11-29T22:29:28.915Z,3.35
2017-11-29T22:31:56.838Z,3.32
2017-11-29T22:34:24.763Z,3.38
2017-11-29T22:36:52.672Z,3.52
2017-11-29T22:39:20.584Z,3.53
2017-11-29T22:41:48.524Z,3.56
2017-11-29T22:44:16.506Z,3.59
2017-11-29T22:46:44.508Z,3.57
2017-11-29T22:49:12.433Z,3.70
2017-11-29T22:51:40.333Z,3.62
2017-11-29T22:54:08.229Z,3.77
2017-11-29T22:56:36.580Z,3.72
2017-11-29T22:59:04.519Z,3.69
2017-11-29T23:01:32.466Z,3.63
2017-11-29T23:04:00.380Z,3.63
2017-11-29T23:06:28.277Z,3.47
2017-11-29T23:08:56.582Z,3.49
2017-11-29T23:11:24.532Z,3.46
2017-11-29T23:13:52.420Z,3.33
2017-11-29T23:16:20.316Z,3.31
2017-11-29T23:18:48.238Z,3.27
2017-11-29T23:21:16.153Z,3.22
2017-11-29T23:23:44.078Z,3.23
2017-11-29T23:26:12.006Z,3.18
2017-11-29T23:28:39.919Z,3.24
2017-11-29T23:31:07.813Z,3.13
2017-11-29T23:33:35.730Z,3.25
2017-11-29T23:36:04.024Z,3.38
2017-11-29T23:38:31.920Z,3.40
2017-11-29T23:40:59.853Z,3.48
2017-11-29T23:43:28.161Z,3.48
2017-11-29T23:45:56.068Z,3.53
2017-11-29T23:48:23.996Z,3.48
2017-11-29T23:50:51.889Z,3.51
2017-11-29T23:53:19.796Z,3.39
2017-11-29T23:55:48.117Z,3.37
2017-11-29T23:58:16.042Z,3.34
